Time;durP1;ratioP1;P1;durP2;ratioP2;P2;SDS_P1;SDS_P2;PMS_P1;PMS_P2;Temp;Humidity;BMP_temperature;BMP_pressure;BME280_temperature;BME280_humidity;BME280_pressure;Samples;Min_cycle;Max_cycle;Signal;HPM_P1;HPM_P2
2023/12/03 00:01:27;;;;;;;1999.90;999.90;;;1.20;99.90;;;;;;4997563;28;20022;-71
2023/12/03 00:03:53;;;;;;;1999.90;999.90;;;1.10;99.90;;;;;;4991797;28;20057;-71
2023/12/03 00:06:19;;;;;;;1999.90;999.90;;;1.20;99.90;;;;;;5051873;28;20033;-70
2023/12/03 00:08:45;;;;;;;1999.90;999.90;;;1.20;99.90;;;;;;4985575;28;20098;-70
2023/12/03 00:11:10;;;;;;;1999.90;999.90;;;1.10;99.90;;;;;;4997243;28;20304;-70
2023/12/03 00:13:36;;;;;;;1999.90;999.90;;;1.20;99.90;;;;;;4991906;28;20035;-70
2023/12/03 00:16:02;;;;;;;1999.90;999.90;;;1.20;99.90;;;;;;4998822;28;20030;-70
2023/12/03 00:18:29;;;;;;;1999.90;999.90;;;1.20;99.90;;;;;;4994094;28;20023;-70
2023/12/03 00:20:55;;;;;;;1999.90;999.90;;;1.20;99.90;;;;;;4998286;28;20109;-70
2023/12/03 00:23:21;;;;;;;1999.90;999.90;;;1.30;99.90;;;;;;4991713;28;20494;-70
2023/12/03 00:25:47;;;;;;;1999.90;999.90;;;1.30;99.90;;;;;;4997477;28;20046;-70
2023/12/03 00:28:12;;;;;;;1999.90;999.90;;;1.30;99.90;;;;;;4991742;28;20070;-70
2023/12/03 00:30:38;;;;;;;1999.90;999.90;;;1.40;99.90;;;;;;4992024;28;20033;-70
2023/12/03 00:33:04;;;;;;;1999.90;999.90;;;1.40;99.90;;;;;;4992159;28;20034;-70
2023/12/03 00:35:30;;;;;;;1999.90;999.90;;;1.40;99.90;;;;;;4993192;28;20041;-70
2023/12/03 00:37:56;;;;;;;1999.90;999.90;;;1.40;99.90;;;;;;4997753;28;20109;-70
2023/12/03 00:40:21;;;;;;;1999.90;999.90;;;1.50;99.90;;;;;;4991606;28;20434;-70
2023/12/03 00:42:47;;;;;;;1999.90;999.90;;;1.40;99.90;;;;;;5001751;28;20030;-70
2023/12/03 00:45:13;;;;;;;1999.90;999.90;;;1.40;99.90;;;;;;4992996;28;20035;-70
2023/12/03 00:47:39;;;;;;;1999.90;999.90;;;1.40;99.90;;;;;;4990978;28;20037;-70
2023/12/03 00:50:05;;;;;;;1999.90;999.90;;;1.30;99.90;;;;;;4991734;28;20035;-70
2023/12/03 00:52:30;;;;;;;1999.90;999.90;;;1.40;99.90;;;;;;5008198;28;20030;-70
2023/12/03 00:54:56;;;;;;;1999.90;999.90;;;1.40;99.90;;;;;;4992187;28;20765;-70
2023/12/03 00:57:22;;;;;;;1999.90;999.90;;;1.40;99.90;;;;;;5009353;28;20023;-70
2023/12/03 00:59:48;;;;;;;1999.90;999.90;;;1.40;99.90;;;;;;4994899;28;20099;-70
2023/12/03 01:02:13;;;;;;;1999.90;999.90;;;1.50;99.90;;;;;;4991304;28;20105;-70
2023/12/03 01:04:39;;;;;;;1999.90;999.90;;;1.50;99.90;;;;;;5027872;28;20018;-71
2023/12/03 01:07:05;;;;;;;1999.90;999.90;;;1.40;99.90;;;;;;4999910;28;20030;-70
2023/12/03 01:09:30;;;;;;;1999.90;999.90;;;1.40;99.90;;;;;;4990766;28;20459;-70
2023/12/03 01:11:57;;;;;;;1999.90;999.90;;;1.40;99.90;;;;;;4989975;28;20121;-70
2023/12/03 01:14:23;;;;;;;1999.90;999.90;;;1.30;99.90;;;;;;4995008;28;20053;-70
2023/12/03 01:16:49;;;;;;;1999.90;999.90;;;1.40;99.90;;;;;;4999413;28;20065;-70
2023/12/03 01:19:15;;;;;;;1999.90;999.90;;;1.40;99.90;;;;;;4992463;28;20072;-70
2023/12/03 01:21:41;;;;;;;1999.90;999.90;;;1.40;99.90;;;;;;4996930;28;20103;-70
2023/12/03 01:24:06;;;;;;;1999.90;999.90;;;1.40;99.90;;;;;;5003528;28;20088;-70
2023/12/03 01:26:32;;;;;;;1999.90;999.90;;;1.40;99.90;;;;;;5074356;28;20040;-70
2023/12/03 01:28:58;;;;;;;1999.90;999.90;;;1.40;99.90;;;;;;5075385;28;20028;-70
2023/12/03 01:31:24;;;;;;;1999.90;999.90;;;1.40;99.90;;;;;;5077451;28;20024;-70
2023/12/03 01:33:50;;;;;;;1999.90;999.90;;;1.40;99.90;;;;;;5075553;28;20028;-70
2023/12/03 01:36:16;;;;;;;1999.90;999.90;;;1.40;99.90;;;;;;5070618;28;20367;-70
2023/12/03 01:38:42;;;;;;;1999.90;999.90;;;1.40;99.90;;;;;;5079382;28;20040;-70
2023/12/03 01:41:08;;;;;;;1999.90;999.90;;;1.40;99.90;;;;;;5071154;28;20814;-70
2023/12/03 01:43:45;;;;;;;1999.90;999.90;;;1.40;99.90;;;;;;5080033;28;20400;-70
2023/12/03 01:46:11;;;;;;;1999.90;999.90;;;1.50;99.90;;;;;;5084641;28;20268;-70
2023/12/03 01:48:37;;;;;;;1999.90;999.90;;;1.50;99.90;;;;;;5077786;28;20327;-70
2023/12/03 01:51:03;;;;;;;1999.90;999.90;;;1.50;99.90;;;;;;5064694;28;20438;-70
2023/12/03 01:53:29;;;;;;;1999.90;999.90;;;1.50;99.90;;;;;;5075496;28;20438;-70
2023/12/03 01:55:55;;;;;;;1999.90;999.90;;;1.40;99.90;;;;;;5075270;28;20411;-70
2023/12/03 01:58:21;;;;;;;1999.90;999.90;;;1.50;99.90;;;;;;5075709;28;20166;-70
2023/12/03 02:00:47;;;;;;;1999.90;999.90;;;1.50;99.90;;;;;;5076002;28;20100;-69
2023/12/03 02:03:13;;;;;;;1999.90;999.90;;;1.50;99.90;;;;;;5054802;28;20017;-70
2023/12/03 02:05:39;;;;;;;1999.90;999.90;;;1.60;99.90;;;;;;5074105;28;20020;-70
2023/12/03 02:08:05;;;;;;;1999.90;999.90;;;1.80;99.90;;;;;;5077898;28;20130;-70
2023/12/03 02:10:30;;;;;;;1999.90;999.90;;;1.70;99.90;;;;;;5077049;28;20033;-70
2023/12/03 02:12:59;;;;;;;1999.90;999.90;;;1.70;99.90;;;;;;5075298;28;20032;-70
2023/12/03 02:15:25;;;;;;;1999.90;999.90;;;1.70;99.90;;;;;;5074124;28;20316;-70
2023/12/03 02:17:51;;;;;;;1999.90;999.90;;;1.60;99.90;;;;;;5078437;28;20029;-69
2023/12/03 02:20:17;;;;;;;1999.90;999.90;;;1.60;99.90;;;;;;5074598;28;20062;-70
2023/12/03 02:23:00;;;;;;;1999.90;999.90;;;1.60;99.90;;;;;;5056878;28;20413;-69
2023/12/03 02:25:26;;;;;;;1999.90;999.90;;;1.60;99.90;;;;;;5050399;28;20038;-70
2023/12/03 02:27:51;;;;;;;1999.90;999.90;;;1.70;99.90;;;;;;4996279;28;20061;-69
2023/12/03 02:30:17;;;;;;;1999.90;999.90;;;1.60;99.90;;;;;;4993000;28;20037;-70
2023/12/03 02:32:43;;;;;;;1999.90;999.90;;;1.60;99.90;;;;;;4999250;28;20076;-70
2023/12/03 02:35:09;;;;;;;1999.90;999.90;;;1.60;99.90;;;;;;4989301;28;20099;-70
2023/12/03 02:37:34;;;;;;;1999.90;999.90;;;1.60;99.90;;;;;;4995792;28;20039;-70
2023/12/03 02:40:00;;;;;;;1999.90;999.90;;;1.60;99.90;;;;;;5012808;28;20033;-70
2023/12/03 02:42:26;;;;;;;1999.90;999.90;;;1.70;99.90;;;;;;4992458;28;20041;-70
2023/12/03 02:44:51;;;;;;;1999.90;999.90;;;1.70;99.90;;;;;;5006008;28;20022;-70
2023/12/03 02:47:17;;;;;;;1999.90;999.90;;;1.70;99.90;;;;;;4992520;28;20022;-70
2023/12/03 02:49:43;;;;;;;1999.90;999.90;;;1.60;99.90;;;;;;5005638;28;20026;-70
2023/12/03 02:52:09;;;;;;;1999.90;999.90;;;1.60;99.90;;;;;;4984247;28;20405;-70
2023/12/03 02:54:37;;;;;;;1999.90;999.90;;;1.60;99.90;;;;;;5033564;28;20030;-70
2023/12/03 02:57:05;;;;;;;1999.90;999.90;;;1.60;99.90;;;;;;5009299;28;20430;-70
2023/12/03 02:59:31;;;;;;;1999.90;999.90;;;1.60;99.90;;;;;;4987304;28;20425;-70
2023/12/03 03:01:57;;;;;;;1999.90;999.90;;;1.60;99.90;;;;;;5026498;28;20030;-70
2023/12/03 03:04:23;;;;;;;1999.90;999.90;;;1.60;99.90;;;;;;5044970;28;20339;-70
2023/12/03 03:06:48;;;;;;;1999.90;999.90;;;1.60;99.90;;;;;;4995986;28;20347;-70
2023/12/03 03:09:14;;;;;;;1999.90;999.90;;;1.60;99.90;;;;;;4987135;28;20030;-70
2023/12/03 03:11:40;;;;;;;1999.90;999.90;;;1.60;99.90;;;;;;5037118;28;20033;-70
2023/12/03 03:14:06;;;;;;;1999.90;999.90;;;1.60;99.90;;;;;;5051452;28;20096;-71
2023/12/03 03:16:32;;;;;;;1999.90;999.90;;;1.60;99.90;;;;;;4986902;28;20032;-70
2023/12/03 03:18:57;;;;;;;1999.90;999.90;;;1.60;99.90;;;;;;4974977;28;20498;-71
2023/12/03 03:21:23;;;;;;;1999.90;999.90;;;1.70;99.90;;;;;;5019381;28;20024;-71
2023/12/03 03:23:49;;;;;;;1999.90;999.90;;;1.60;99.90;;;;;;4993580;28;20443;-71
2023/12/03 03:26:15;;;;;;;1999.90;999.90;;;1.60;99.90;;;;;;4989007;28;20042;-71
2023/12/03 03:28:41;;;;;;;1999.90;999.90;;;1.50;99.90;;;;;;4984415;28;20035;-71
2023/12/03 03:31:07;;;;;;;1999.90;999.90;;;1.50;99.90;;;;;;5018416;28;20050;-71
2023/12/03 03:33:32;;;;;;;1999.90;999.90;;;1.50;99.90;;;;;;5022466;28;20495;-70
2023/12/03 03:35:58;;;;;;;1999.90;999.90;;;1.50;99.90;;;;;;5034969;28;20054;-70
2023/12/03 03:38:25;;;;;;;1999.90;999.90;;;1.50;99.90;;;;;;4988942;28;20083;-70
2023/12/03 03:40:50;;;;;;;1999.90;999.90;;;1.50;99.90;;;;;;4988426;28;20034;-70
2023/12/03 03:43:16;;;;;;;1999.90;999.90;;;1.60;99.90;;;;;;5036461;28;20492;-70
2023/12/03 03:45:42;;;;;;;1999.90;999.90;;;1.60;99.90;;;;;;4988344;28;20168;-70
2023/12/03 03:48:07;;;;;;;1999.90;999.90;;;1.60;99.90;;;;;;5000377;28;20026;-70
2023/12/03 03:50:33;;;;;;;1999.90;999.90;;;1.60;99.90;;;;;;4990679;28;20057;-70
2023/12/03 03:52:59;;;;;;;1999.90;999.90;;;1.60;99.90;;;;;;4975563;28;20321;-70
2023/12/03 03:55:25;;;;;;;1999.90;999.90;;;1.60;99.90;;;;;;5012000;28;20027;-70
2023/12/03 03:57:51;;;;;;;1999.90;999.90;;;1.60;99.90;;;;;;5018993;28;20435;-70
2023/12/03 04:00:17;;;;;;;1999.90;999.90;;;1.60;99.90;;;;;;4997678;28;20031;-70
2023/12/03 04:02:43;;;;;;;1999.90;999.90;;;1.60;99.90;;;;;;5024692;28;20261;-70
2023/12/03 04:05:08;;;;;;;1999.90;999.90;;;1.60;99.90;;;;;;4993419;28;20037;-70
2023/12/03 04:07:34;;;;;;;1999.90;999.90;;;1.60;99.90;;;;;;5019057;28;20035;-70
2023/12/03 04:10:00;;;;;;;1999.90;999.90;;;1.60;99.90;;;;;;4990909;28;20271;-70
2023/12/03 04:12:26;;;;;;;1999.90;999.90;;;1.60;99.90;;;;;;5001847;28;20051;-70
2023/12/03 04:14:51;;;;;;;1999.90;999.90;;;1.60;99.90;;;;;;4999179;28;20034;-70
2023/12/03 04:17:17;;;;;;;1999.90;999.90;;;1.60;99.90;;;;;;5003513;28;20080;-70
2023/12/03 04:19:43;;;;;;;1999.90;999.90;;;1.60;99.90;;;;;;4988526;28;20026;-71
2023/12/03 04:22:08;;;;;;;1999.90;999.90;;;1.50;99.90;;;;;;4986455;28;20431;-70
2023/12/03 04:24:34;;;;;;;1999.90;999.90;;;1.50;99.90;;;;;;5059021;28;20021;-71
2023/12/03 04:27:00;;;;;;;1999.90;999.90;;;1.40;99.90;;;;;;5000128;28;20456;-71
2023/12/03 04:29:25;;;;;;;1999.90;999.90;;;1.40;99.90;;;;;;4971702;28;20026;-71
2023/12/03 04:31:51;;;;;;;1999.90;999.90;;;1.30;99.90;;;;;;5026678;28;20095;-71
2023/12/03 04:34:17;;;;;;;1999.90;999.90;;;1.30;99.90;;;;;;5005802;28;20035;-71
2023/12/03 04:36:43;;;;;;;1999.90;999.90;;;1.30;99.90;;;;;;4997972;28;20037;-70
2023/12/03 04:39:09;;;;;;;1999.90;999.90;;;1.30;99.90;;;;;;5038137;28;20021;-70
2023/12/03 04:41:37;;;;;;;1999.90;999.90;;;1.20;99.90;;;;;;4961679;28;20375;-71
2023/12/03 04:44:04;;;;;;;1999.90;999.90;;;1.20;99.90;;;;;;5034663;28;20020;-70
2023/12/03 04:46:30;;;;;;;1999.90;999.90;;;1.10;99.90;;;;;;5032811;28;20051;-71
2023/12/03 04:48:57;;;;;;;1999.90;999.90;;;1.10;99.90;;;;;;4991881;28;20078;-70
2023/12/03 04:51:23;;;;;;;1999.90;999.90;;;1.10;99.90;;;;;;5024329;28;20478;-70
2023/12/03 04:53:49;;;;;;;1999.90;999.90;;;1.00;99.90;;;;;;5023430;28;20125;-70
2023/12/03 04:56:14;;;;;;;1999.90;999.90;;;1.00;99.90;;;;;;5041078;28;20034;-70
2023/12/03 04:58:41;;;;;;;1999.90;999.90;;;0.90;99.90;;;;;;5003981;28;20137;-70
2023/12/03 05:01:07;;;;;;;;;;;0.80;99.90;;;;;;5017324;28;20072;-70
2023/12/03 05:03:32;;;;;;;1999.90;999.90;;;0.80;99.90;;;;;;5005279;28;19914;-70
2023/12/03 05:05:58;;;;;;;1999.90;999.90;;;0.80;99.90;;;;;;4993317;28;20293;-70
2023/12/03 05:08:24;;;;;;;1999.90;999.90;;;0.90;99.90;;;;;;5045862;28;20022;-70
2023/12/03 05:10:49;;;;;;;1999.90;999.90;;;0.90;99.90;;;;;;4994330;28;20030;-70
2023/12/03 05:13:16;;;;;;;1999.90;999.90;;;0.80;99.90;;;;;;4979335;28;20072;-70
2023/12/03 05:15:42;;;;;;;1999.90;999.90;;;0.70;99.90;;;;;;4993282;28;20034;-70
2023/12/03 05:18:07;;;;;;;1999.90;999.90;;;0.70;99.90;;;;;;4993450;28;20044;-70
2023/12/03 05:20:33;;;;;;;1999.90;999.90;;;0.70;99.90;;;;;;5013848;28;20046;-70
2023/12/03 05:22:59;;;;;;;1999.90;999.90;;;0.60;99.90;;;;;;5038134;28;20110;-70
2023/12/03 05:25:25;;;;;;;1999.90;999.90;;;0.50;99.90;;;;;;4985545;28;20039;-70
2023/12/03 05:27:51;;;;;;;1999.90;999.90;;;0.40;99.90;;;;;;4997214;28;20035;-70
2023/12/03 05:30:18;;;;;;;1999.90;999.90;;;0.40;99.90;;;;;;4998400;28;20038;-70
2023/12/03 05:32:44;;;;;;;1999.90;999.90;;;0.40;99.90;;;;;;5048626;28;20418;-70
2023/12/03 05:35:10;;;;;;;1999.90;999.90;;;0.40;99.90;;;;;;5042355;28;20043;-70
2023/12/03 05:37:38;;;;;;;1999.90;999.90;;;0.40;99.90;;;;;;5016773;28;20108;-70
2023/12/03 05:40:04;;;;;;;1999.90;999.90;;;0.30;99.90;;;;;;4993810;28;20035;-70
2023/12/03 05:42:30;;;;;;;1999.90;999.90;;;0.30;99.90;;;;;;5035703;28;20403;-70
2023/12/03 05:44:56;;;;;;;1999.90;999.90;;;0.20;99.90;;;;;;4993535;28;20034;-70
2023/12/03 05:47:22;;;;;;;1999.90;999.90;;;0.20;99.90;;;;;;4994142;28;20034;-70
2023/12/03 05:49:47;;;;;;;1999.90;999.90;;;0.20;99.90;;;;;;4988476;28;20267;-70
2023/12/03 05:52:15;;;;;;;1999.90;999.90;;;0.20;99.90;;;;;;5037360;28;20078;-70
2023/12/03 05:54:42;;;;;;;1999.90;999.90;;;0.20;99.90;;;;;;4991047;28;20102;-70
2023/12/03 05:57:08;;;;;;;1999.90;999.90;;;0.10;99.90;;;;;;4993934;28;20023;-70
2023/12/03 05:59:33;;;;;;;1999.90;999.90;;;0.10;99.90;;;;;;4975262;28;20318;-70
2023/12/03 06:01:59;;;;;;;1999.90;999.90;;;0.10;99.90;;;;;;4994242;28;20042;-70
2023/12/03 06:04:25;;;;;;;1999.90;999.90;;;0.10;99.90;;;;;;4994504;28;20115;-69
2023/12/03 06:06:51;;;;;;;1999.90;999.90;;;0.00;99.90;;;;;;4994521;28;20027;-70
2023/12/03 06:09:16;;;;;;;1999.90;999.90;;;0.00;99.90;;;;;;4991780;28;20030;-70
2023/12/03 06:11:42;;;;;;;1999.90;999.90;;;0.00;99.90;;;;;;5045846;28;20086;-70
2023/12/03 06:14:08;;;;;;;1999.90;999.90;;;-0.10;99.90;;;;;;5030153;28;20033;-70
2023/12/03 06:16:34;;;;;;;1999.90;999.90;;;-0.10;99.90;;;;;;4998197;28;20397;-70
2023/12/03 06:18:59;;;;;;;1999.90;999.90;;;-0.30;99.90;;;;;;4986506;28;20041;-70
2023/12/03 06:21:25;;;;;;;1999.90;999.90;;;-0.40;99.90;;;;;;4982754;28;20314;-70
2023/12/03 06:23:52;;;;;;;1999.90;999.90;;;-0.40;99.90;;;;;;5001866;28;20020;-70
2023/12/03 06:26:18;;;;;;;1999.90;999.90;;;-0.50;99.90;;;;;;5039614;28;20042;-70
2023/12/03 06:28:43;;;;;;;1999.90;999.90;;;-0.50;99.90;;;;;;4997351;28;20085;-70
2023/12/03 06:31:09;;;;;;;1999.90;999.90;;;-0.50;99.90;;;;;;5003128;28;20298;-70
2023/12/03 06:33:35;;;;;;;1999.90;999.90;;;-0.50;99.90;;;;;;4987033;28;20075;-70
2023/12/03 06:36:01;;;;;;;1999.90;999.90;;;-0.50;99.90;;;;;;4994603;28;20018;-70
2023/12/03 06:38:27;;;;;;;1999.90;999.90;;;-0.40;99.90;;;;;;4992838;28;20045;-71
2023/12/03 06:40:53;;;;;;;1999.90;999.90;;;-0.40;99.90;;;;;;4987818;28;20359;-70
2023/12/03 06:43:19;;;;;;;1999.90;999.90;;;-0.40;99.90;;;;;;4994465;28;20023;-70
2023/12/03 06:45:45;;;;;;;1999.90;999.90;;;-0.40;99.90;;;;;;4992508;28;20344;-70
2023/12/03 06:48:10;;;;;;;1999.90;999.90;;;-0.40;99.90;;;;;;4987052;28;20091;-70
2023/12/03 06:50:36;;;;;;;1999.90;999.90;;;-0.40;99.90;;;;;;5006506;28;20077;-70
2023/12/03 06:53:02;;;;;;;1999.90;999.90;;;-0.30;99.90;;;;;;4977290;28;20062;-70
2023/12/03 06:55:28;;;;;;;1999.90;999.90;;;-0.30;99.90;;;;;;4999200;28;20094;-70
2023/12/03 06:57:53;;;;;;;1999.90;999.90;;;-0.30;99.90;;;;;;5001423;28;20455;-70
2023/12/03 07:00:20;;;;;;;1999.90;999.90;;;-0.30;99.90;;;;;;4987434;28;20488;-70
2023/12/03 07:02:45;;;;;;;1999.90;999.90;;;-0.40;99.90;;;;;;4989291;28;20030;-70
2023/12/03 07:05:11;;;;;;;1999.90;999.90;;;-0.40;99.90;;;;;;4996432;28;20057;-69
2023/12/03 07:07:37;;;;;;;1999.90;999.90;;;-0.40;99.90;;;;;;4987263;28;20042;-70
2023/12/03 07:10:04;;;;;;;1999.90;999.90;;;-0.40;99.90;;;;;;5036114;28;20024;-70
2023/12/03 07:12:30;;;;;;;1999.90;999.90;;;-0.40;99.90;;;;;;4982042;28;20098;-70
2023/12/03 07:14:56;;;;;;;1999.90;999.90;;;-0.40;99.90;;;;;;4998784;28;20445;-70
2023/12/03 07:17:21;;;;;;;1999.90;999.90;;;-0.50;99.90;;;;;;5018506;28;20031;-69
2023/12/03 07:19:47;;;;;;;1999.90;999.90;;;-0.50;99.90;;;;;;5016914;28;20022;-70
2023/12/03 07:22:13;;;;;;;1999.90;999.90;;;-0.40;99.90;;;;;;4987699;28;20464;-70
2023/12/03 07:24:40;;;;;;;1999.90;999.90;;;-0.40;99.90;;;;;;4995313;28;20085;-70
2023/12/03 07:27:07;;;;;;;1999.90;999.90;;;-0.40;99.90;;;;;;4975788;28;20509;-69
2023/12/03 07:29:33;;;;;;;1999.90;999.90;;;-0.50;99.90;;;;;;4993658;28;20026;-69
2023/12/03 07:31:59;;;;;;;1999.90;999.90;;;-0.40;99.90;;;;;;5037008;28;20040;-70
2023/12/03 07:34:26;;;;;;;1999.90;999.90;;;-0.50;99.90;;;;;;5013724;28;20031;-70
2023/12/03 07:36:52;;;;;;;1999.90;999.90;;;-0.40;99.90;;;;;;4982320;28;20038;-70
2023/12/03 07:39:19;;;;;;;1999.90;999.90;;;-0.40;99.90;;;;;;5071541;28;20103;-69
2023/12/03 07:41:50;;;;;;;1999.90;999.90;;;-0.40;99.90;;;;;;4989796;28;20034;-69
2023/12/03 07:44:16;;;;;;;1999.90;999.90;;;-0.40;99.90;;;;;;4985793;28;20491;-69
2023/12/03 07:46:42;;;;;;;1999.90;999.90;;;-0.40;99.90;;;;;;4998699;28;20027;-69
2023/12/03 07:49:08;;;;;;;1999.90;999.90;;;-0.30;99.90;;;;;;4991695;28;20304;-70
2023/12/03 07:51:34;;;;;;;1999.90;999.90;;;-0.40;99.90;;;;;;4997749;28;20026;-69
2023/12/03 07:54:00;;;;;;;1999.90;999.90;;;-0.30;99.90;;;;;;4990164;28;20459;-69
2023/12/03 07:56:40;;;;;;;1999.90;999.90;;;-0.30;99.90;;;;;;4983602;28;20022;-69
2023/12/03 07:59:06;;;;;;;1999.90;999.90;;;-0.30;99.90;;;;;;4991160;28;20371;-69
2023/12/03 08:01:32;;;;;;;1999.90;999.90;;;-0.30;99.90;;;;;;4989909;28;20080;-69
2023/12/03 08:03:59;;;;;;;1999.90;999.90;;;-0.30;99.90;;;;;;4991080;28;20101;-69
2023/12/03 08:06:25;;;;;;;1999.90;999.90;;;-0.30;99.90;;;;;;4972767;28;20439;-69
2023/12/03 08:08:52;;;;;;;1999.90;999.90;;;-0.30;99.90;;;;;;4974551;28;20447;-69
2023/12/03 08:11:19;;;;;;;1999.90;999.90;;;-0.30;99.90;;;;;;4972592;28;20125;-69
2023/12/03 08:13:45;;;;;;;;;;;-0.30;99.90;;;;;;4991399;28;20069;-69
2023/12/03 08:16:12;;;;;;;1999.90;999.90;;;-0.30;99.90;;;;;;4994528;28;19913;-69
2023/12/03 08:18:38;;;;;;;1999.90;999.90;;;-0.30;99.90;;;;;;4974808;28;20489;-70
2023/12/03 08:21:04;;;;;;;1999.90;999.90;;;-0.20;99.90;;;;;;4995167;28;20360;-69
2023/12/03 08:23:34;;;;;;;1999.90;999.90;;;-0.20;99.90;;;;;;4956968;28;20110;-70
2023/12/03 08:26:05;;;;;;;1999.90;999.90;;;-0.10;99.90;;;;;;4988944;28;20510;-69
2023/12/03 08:28:31;;;;;;;1999.90;999.90;;;-0.10;99.90;;;;;;4991029;28;20130;-69
2023/12/03 08:30:58;;;;;;;1999.90;999.90;;;-0.10;99.90;;;;;;4989952;28;20520;-69
2023/12/03 08:33:25;;;;;;;1999.90;999.90;;;-0.10;99.90;;;;;;4993845;28;20714;-69
2023/12/03 08:35:51;;;;;;;1999.90;999.90;;;-0.10;99.90;;;;;;4991783;28;20501;-69
2023/12/03 08:38:17;;;;;;;1999.90;999.90;;;0.00;99.90;;;;;;5008957;28;20107;-69
2023/12/03 08:40:42;;;;;;;1999.90;999.90;;;0.00;99.90;;;;;;4986111;28;20027;-69
2023/12/03 08:43:08;;;;;;;1999.90;999.90;;;0.10;99.90;;;;;;4993052;28;20027;-69
2023/12/03 08:45:34;;;;;;;1999.90;999.90;;;0.10;99.90;;;;;;5025647;28;20461;-69
2023/12/03 08:48:00;;;;;;;1999.90;999.90;;;0.10;99.90;;;;;;4999970;28;20480;-69
2023/12/03 08:50:29;;;;;;;1999.90;999.90;;;0.10;99.90;;;;;;4995386;28;20500;-69
2023/12/03 08:52:56;;;;;;;1999.90;999.90;;;0.20;99.90;;;;;;5008823;28;20421;-69
2023/12/03 08:55:22;;;;;;;1999.90;999.90;;;0.20;99.90;;;;;;4995689;28;20055;-69
2023/12/03 08:57:48;;;;;;;1999.90;999.90;;;0.30;99.90;;;;;;4987704;28;20073;-69
2023/12/03 09:00:15;;;;;;;1999.90;999.90;;;0.30;99.90;;;;;;5005102;28;20031;-69
2023/12/03 09:02:45;;;;;;;1999.90;999.90;;;0.40;99.90;;;;;;4984014;28;20026;-69
2023/12/03 09:05:10;;;;;;;1999.90;999.90;;;0.50;99.90;;;;;;4983853;28;20352;-70
2023/12/03 09:07:37;;;;;;;1999.90;999.90;;;0.50;99.90;;;;;;4991331;28;20046;-70
2023/12/03 09:10:03;;;;;;;1999.90;999.90;;;0.60;99.90;;;;;;4994847;28;20035;-69
2023/12/03 09:12:29;;;;;;;1999.90;999.90;;;0.60;99.90;;;;;;4992058;28;20332;-69
2023/12/03 09:14:55;;;;;;;1999.90;999.90;;;0.60;99.90;;;;;;4990069;28;20026;-69
2023/12/03 09:17:21;;;;;;;1999.90;999.90;;;0.70;99.90;;;;;;4992503;28;20023;-70
2023/12/03 09:19:47;;;;;;;1999.90;999.90;;;0.70;99.90;;;;;;4990082;28;20471;-70
2023/12/03 09:22:13;;;;;;;1999.90;999.90;;;0.60;99.90;;;;;;4989270;28;20023;-69
2023/12/03 09:24:39;;;;;;;1999.90;999.90;;;0.70;99.90;;;;;;4991500;28;20424;-70
2023/12/03 09:27:05;;;;;;;1999.90;999.90;;;0.70;99.90;;;;;;4990162;28;20053;-70
2023/12/03 09:29:31;;;;;;;1999.90;999.90;;;0.70;99.90;;;;;;4986872;28;20109;-70
2023/12/03 09:31:57;;;;;;;1999.90;999.90;;;0.80;99.90;;;;;;4976068;28;20117;-70
2023/12/03 09:34:23;;;;;;;1999.90;999.90;;;0.80;99.90;;;;;;4999845;28;20037;-70
2023/12/03 09:36:49;;;;;;;1999.90;999.90;;;0.90;99.90;;;;;;4990353;28;20034;-70
2023/12/03 09:39:15;;;;;;;1999.90;999.90;;;0.80;99.90;;;;;;4992083;28;20102;-70
2023/12/03 09:41:51;;;;;;;1999.90;999.90;;;0.70;99.90;;;;;;4993625;28;20113;-70
2023/12/03 09:44:17;;;;;;;1999.90;999.90;;;0.70;99.90;;;;;;4987416;28;20031;-70
2023/12/03 09:46:46;;;;;;;1999.90;999.90;;;0.80;99.90;;;;;;4993102;28;20033;-70
2023/12/03 09:49:14;;;;;;;1999.90;999.90;;;0.80;99.90;;;;;;4991573;28;20295;-69
2023/12/03 09:51:41;;;;;;;1999.90;999.90;;;0.80;99.90;;;;;;4993349;28;20428;-69
2023/12/03 09:54:08;;;;;;;1999.90;999.90;;;0.90;99.90;;;;;;4991070;28;20096;-70
2023/12/03 09:56:35;;;;;;;1999.90;999.90;;;0.90;99.90;;;;;;4976638;28;20027;-70
2023/12/03 09:59:01;;;;;;;1999.90;999.90;;;1.00;99.90;;;;;;4983700;28;20429;-69
2023/12/03 10:01:29;;;;;;;1999.90;999.90;;;1.10;99.90;;;;;;4989673;28;20057;-69
2023/12/03 10:03:55;;;;;;;1999.90;999.90;;;1.10;99.90;;;;;;4991136;28;20038;-70
2023/12/03 10:06:25;;;;;;;1999.90;999.90;;;1.20;99.90;;;;;;4988245;28;20416;-70
2023/12/03 10:08:52;;;;;;;1999.90;999.90;;;1.20;99.90;;;;;;4992028;28;20046;-70
2023/12/03 10:11:27;;;;;;;1999.90;999.90;;;1.30;99.90;;;;;;4993881;28;20309;-70
2023/12/03 10:13:56;;;;;;;1999.90;999.90;;;1.40;99.90;;;;;;4990955;28;20440;-70
2023/12/03 10:16:22;;;;;;;1999.90;999.90;;;1.50;99.90;;;;;;4990339;28;20398;-70
2023/12/03 10:18:50;;;;;;;1999.90;999.90;;;1.50;99.90;;;;;;4989434;28;20036;-69
2023/12/03 10:21:15;;;;;;;1999.90;999.90;;;1.50;99.90;;;;;;4990385;28;20050;-70
2023/12/03 10:23:55;;;;;;;1999.90;999.90;;;1.60;99.90;;;;;;4992198;28;20066;-69
2023/12/03 10:26:21;;;;;;;1999.90;999.90;;;1.60;99.90;;;;;;4992627;28;20070;-70
2023/12/03 10:28:46;;;;;;;1999.90;999.90;;;1.70;99.90;;;;;;4993046;28;20491;-70
2023/12/03 10:31:12;;;;;;;1999.90;999.90;;;1.70;99.90;;;;;;4992365;28;20030;-70
2023/12/03 10:33:38;;;;;;;1999.90;999.90;;;1.80;99.90;;;;;;4991204;28;20073;-70
2023/12/03 10:36:05;;;;;;;1999.90;999.90;;;1.90;99.90;;;;;;5017458;28;20092;-70
2023/12/03 10:38:38;;;;;;;1999.90;999.90;;;2.00;99.90;;;;;;4992297;28;20058;-70
2023/12/03 10:41:15;;;;;;;1999.90;999.90;;;2.00;99.90;;;;;;4991718;28;20440;-71
2023/12/03 10:43:41;;;;;;;;;;;2.00;99.90;;;;;;4996487;28;20048;-70
2023/12/03 10:46:11;;;;;;;;;;;2.00;99.90;;;;;;4991343;28;19918;-70
2023/12/03 10:48:38;;;;;;;1999.90;999.90;;;1.90;99.90;;;;;;4990030;28;19944;-70
2023/12/03 10:51:07;;;;;;;1999.90;999.90;;;1.90;99.90;;;;;;4989235;28;20478;-70
2023/12/03 10:53:33;;;;;;;1999.90;999.90;;;1.90;99.90;;;;;;4990766;28;20029;-70
2023/12/03 10:56:04;;;;;;;1999.90;999.90;;;2.00;99.90;;;;;;4987386;28;20043;-70
2023/12/03 10:58:33;;;;;;;1999.90;999.90;;;2.00;99.90;;;;;;4990606;28;20390;-70
2023/12/03 11:01:08;;;;;;;1999.90;999.90;;;2.00;99.90;;;;;;4992590;28;20072;-70
2023/12/03 11:03:55;;;;;;;1999.90;999.90;;;2.00;99.90;;;;;;4991399;28;20418;-70
2023/12/03 11:06:26;;;;;;;1999.90;999.90;;;2.10;99.90;;;;;;4989388;28;20022;-70
2023/12/03 11:08:54;;;;;;;1999.90;999.90;;;2.10;99.90;;;;;;4986767;28;20463;-70
2023/12/03 11:11:20;;;;;;;1999.90;999.90;;;2.20;99.90;;;;;;4992061;28;20022;-70
2023/12/03 11:13:51;;;;;;;1999.90;999.90;;;2.20;99.90;;;;;;5007394;28;20040;-70
2023/12/03 11:16:18;;;;;;;1999.90;999.90;;;2.20;99.90;;;;;;5057775;28;20035;-70
2023/12/03 11:19:06;;;;;;;1999.90;999.90;;;2.30;99.90;;;;;;4994008;28;20496;-70
2023/12/03 11:21:56;;;;;;;1999.90;999.90;;;2.30;99.90;;;;;;4980935;28;20053;-69
2023/12/03 11:24:56;;;;;;;1999.90;999.90;;;2.40;99.90;;;;;;5016327;28;20034;-69
2023/12/03 11:27:26;;;;;;;1999.90;999.90;;;2.60;99.90;;;;;;4999478;28;20330;-70
2023/12/03 11:29:53;;;;;;;1999.90;999.90;;;2.60;99.90;;;;;;5000916;28;20516;-69
2023/12/03 11:32:21;;;;;;;1999.90;999.90;;;2.60;99.90;;;;;;4990378;28;20037;-69
2023/12/03 11:34:58;;;;;;;1999.90;999.90;;;2.60;99.90;;;;;;4993849;28;20538;-70
2023/12/03 11:37:27;;;;;;;1999.90;999.90;;;2.60;99.90;;;;;;4992536;28;20034;-70
2023/12/03 11:39:55;;;;;;;1999.90;999.90;;;2.60;99.90;;;;;;4994003;28;20079;-69
2023/12/03 11:42:23;;;;;;;1999.90;999.90;;;2.60;99.90;;;;;;4990594;28;20499;-70
2023/12/03 11:44:49;;;;;;;1999.90;999.90;;;2.50;99.90;;;;;;4976525;28;20057;-69
2023/12/03 11:47:15;;;;;;;1999.90;999.90;;;2.40;99.90;;;;;;4975558;28;20022;-69
2023/12/03 11:49:41;;;;;;;1999.90;999.90;;;2.40;99.90;;;;;;4991355;28;20123;-69
2023/12/03 11:52:08;;;;;;;1999.90;999.90;;;2.40;99.90;;;;;;4990596;28;20117;-69
2023/12/03 11:54:44;;;;;;;1999.90;999.90;;;2.40;99.90;;;;;;4974122;28;20030;-69
2023/12/03 11:57:17;;;;;;;1999.90;999.90;;;2.30;99.90;;;;;;4991884;28;20034;-69
2023/12/03 11:59:44;;;;;;;1999.90;999.90;;;2.30;99.90;;;;;;4989673;28;20035;-70
2023/12/03 12:02:09;;;;;;;;;;;2.20;99.90;;;;;;4974838;28;20320;-70
2023/12/03 12:04:35;;;;;;;1999.90;999.90;;;2.20;99.90;;;;;;5010519;28;19965;-70
2023/12/03 12:07:18;;;;;;;1999.90;999.90;;;2.20;99.90;;;;;;5012666;28;20030;-69